sensor_id;sensor_type;location;lat;lon;timestamp;temperature;humidity
3055;DHT22;1537;52.018;8.542;2023-12-14T00:03:09;5.50;99.90
3055;DHT22;1537;52.018;8.542;2023-12-14T00:06:35;5.40;99.90
3055;DHT22;1537;52.018;8.542;2023-12-14T00:09:59;5.40;99.90
3055;DHT22;1537;52.018;8.542;2023-12-14T00:13:23;5.40;99.90
3055;DHT22;1537;52.018;8.542;2023-12-14T00:16:47;5.40;99.90
3055;DHT22;1537;52.018;8.542;2023-12-14T00:20:12;5.40;99.90
3055;DHT22;1537;52.018;8.542;2023-12-14T00:23:38;5.40;99.90
3055;DHT22;1537;52.018;8.542;2023-12-14T00:27:04;5.40;99.90
3055;DHT22;1537;52.018;8.542;2023-12-14T00:30:29;5.40;99.90
3055;DHT22;1537;52.018;8.542;2023-12-14T00:33:53;5.20;99.90
3055;DHT22;1537;52.018;8.542;2023-12-14T00:37:17;5.30;99.90
3055;DHT22;1537;52.018;8.542;2023-12-14T00:40:42;5.20;99.90
3055;DHT22;1537;52.018;8.542;2023-12-14T00:44:06;5.20;99.90
3055;DHT22;1537;52.018;8.542;2023-12-14T00:47:31;5.20;99.90
3055;DHT22;1537;52.018;8.542;2023-12-14T00:50:55;5.20;99.90
3055;DHT22;1537;52.018;8.542;2023-12-14T00:54:19;5.20;99.90
3055;DHT22;1537;52.018;8.542;2023-12-14T00:57:46;5.20;99.90
3055;DHT22;1537;52.018;8.542;2023-12-14T01:01:11;5.20;99.90
3055;DHT22;1537;52.018;8.542;2023-12-14T01:04:35;5.20;99.90
3055;DHT22;1537;52.018;8.542;2023-12-14T01:07:59;5.10;99.90
3055;DHT22;1537;52.018;8.542;2023-12-14T01:11:23;5.10;99.90
3055;DHT22;1537;52.018;8.542;2023-12-14T01:14:48;5.00;99.90
3055;DHT22;1537;52.018;8.542;2023-12-14T01:18:13;5.10;99.90
3055;DHT22;1537;52.018;8.542;2023-12-14T01:21:38;5.00;99.90
3055;DHT22;1537;52.018;8.542;2023-12-14T01:25:01;5.00;99.90
3055;DHT22;1537;52.018;8.542;2023-12-14T01:28:26;5.00;99.90
3055;DHT22;1537;52.018;8.542;2023-12-14T01:31:51;4.90;99.90
3055;DHT22;1537;52.018;8.542;2023-12-14T01:35:15;4.90;99.90
3055;DHT22;1537;52.018;8.542;2023-12-14T01:38:39;4.90;99.90
3055;DHT22;1537;52.018;8.542;2023-12-14T01:42:03;4.80;99.90
3055;DHT22;1537;52.018;8.542;2023-12-14T01:45:30;4.80;99.90
3055;DHT22;1537;52.018;8.542;2023-12-14T01:48:55;4.80;99.90
3055;DHT22;1537;52.018;8.542;2023-12-14T01:52:21;4.80;99.90
3055;DHT22;1537;52.018;8.542;2023-12-14T01:55:45;4.80;99.90
3055;DHT22;1537;52.018;8.542;2023-12-14T01:59:09;4.80;99.90
3055;DHT22;1537;52.018;8.542;2023-12-14T02:02:34;4.80;99.90
3055;DHT22;1537;52.018;8.542;2023-12-14T02:06:02;4.80;99.90
3055;DHT22;1537;52.018;8.542;2023-12-14T02:09:26;4.80;99.90
3055;DHT22;1537;52.018;8.542;2023-12-14T02:12:51;4.80;99.90
3055;DHT22;1537;52.018;8.542;2023-12-14T02:16:14;4.80;99.90
3055;DHT22;1537;52.018;8.542;2023-12-14T02:19:38;4.70;99.90
3055;DHT22;1537;52.018;8.542;2023-12-14T02:23:06;4.60;99.90
3055;DHT22;1537;52.018;8.542;2023-12-14T02:26:31;4.50;99.90
3055;DHT22;1537;52.018;8.542;2023-12-14T02:29:58;4.50;99.90
3055;DHT22;1537;52.018;8.542;2023-12-14T02:33:24;4.50;99.90
3055;DHT22;1537;52.018;8.542;2023-12-14T02:36:48;4.50;99.90
3055;DHT22;1537;52.018;8.542;2023-12-14T02:40:13;4.40;99.90
3055;DHT22;1537;52.018;8.542;2023-12-14T02:43:45;4.40;99.90
3055;DHT22;1537;52.018;8.542;2023-12-14T02:47:11;4.50;99.90
3055;DHT22;1537;52.018;8.542;2023-12-14T02:50:35;4.50;99.90
3055;DHT22;1537;52.018;8.542;2023-12-14T02:53:59;4.50;99.90
3055;DHT22;1537;52.018;8.542;2023-12-14T02:57:27;4.50;99.90
3055;DHT22;1537;52.018;8.542;2023-12-14T03:00:53;4.40;99.90
3055;DHT22;1537;52.018;8.542;2023-12-14T03:04:17;4.40;99.90
3055;DHT22;1537;52.018;8.542;2023-12-14T03:07:43;4.40;99.90
3055;DHT22;1537;52.018;8.542;2023-12-14T03:11:07;4.40;99.90
3055;DHT22;1537;52.018;8.542;2023-12-14T03:14:33;4.40;99.90
3055;DHT22;1537;52.018;8.542;2023-12-14T03:17:58;4.40;99.90
3055;DHT22;1537;52.018;8.542;2023-12-14T03:21:23;4.40;99.90
3055;DHT22;1537;52.018;8.542;2023-12-14T03:24:47;4.40;99.90
3055;DHT22;1537;52.018;8.542;2023-12-14T03:28:11;4.40;99.90
3055;DHT22;1537;52.018;8.542;2023-12-14T03:31:36;4.40;99.90
3055;DHT22;1537;52.018;8.542;2023-12-14T03:35:03;4.20;99.90
3055;DHT22;1537;52.018;8.542;2023-12-14T03:38:31;4.20;99.90
3055;DHT22;1537;52.018;8.542;2023-12-14T03:41:56;4.20;99.90
3055;DHT22;1537;52.018;8.542;2023-12-14T03:45:20;4.20;99.90
3055;DHT22;1537;52.018;8.542;2023-12-14T03:48:45;4.30;99.90
3055;DHT22;1537;52.018;8.542;2023-12-14T03:52:10;4.20;99.90
3055;DHT22;1537;52.018;8.542;2023-12-14T03:55:34;4.20;99.90
3055;DHT22;1537;52.018;8.542;2023-12-14T03:58:58;4.30;99.90
3055;DHT22;1537;52.018;8.542;2023-12-14T04:02:22;4.30;99.90
3055;DHT22;1537;52.018;8.542;2023-12-14T04:05:47;4.30;99.90
3055;DHT22;1537;52.018;8.542;2023-12-14T04:09:11;4.20;99.90
3055;DHT22;1537;52.018;8.542;2023-12-14T04:12:35;4.20;99.90
3055;DHT22;1537;52.018;8.542;2023-12-14T04:15:59;4.20;99.90
3055;DHT22;1537;52.018;8.542;2023-12-14T04:19:23;4.20;99.90
3055;DHT22;1537;52.018;8.542;2023-12-14T04:22:48;4.20;99.90
3055;DHT22;1537;52.018;8.542;2023-12-14T04:26:12;4.20;99.90
3055;DHT22;1537;52.018;8.542;2023-12-14T04:29:36;4.20;99.90
3055;DHT22;1537;52.018;8.542;2023-12-14T04:33:04;4.20;99.90
3055;DHT22;1537;52.018;8.542;2023-12-14T04:36:29;4.20;99.90
3055;DHT22;1537;52.018;8.542;2023-12-14T04:39:54;4.10;99.90
3055;DHT22;1537;52.018;8.542;2023-12-14T04:43:19;4.10;99.90
3055;DHT22;1537;52.018;8.542;2023-12-14T04:46:43;4.20;99.90
3055;DHT22;1537;52.018;8.542;2023-12-14T04:50:07;4.10;99.90
3055;DHT22;1537;52.018;8.542;2023-12-14T04:53:32;4.20;99.90
3055;DHT22;1537;52.018;8.542;2023-12-14T04:56:57;4.20;99.90
3055;DHT22;1537;52.018;8.542;2023-12-14T05:00:21;4.10;99.90
3055;DHT22;1537;52.018;8.542;2023-12-14T05:03:45;4.20;99.90
3055;DHT22;1537;52.018;8.542;2023-12-14T05:07:09;4.10;99.90
3055;DHT22;1537;52.018;8.542;2023-12-14T05:10:33;4.10;99.90
3055;DHT22;1537;52.018;8.542;2023-12-14T05:14:00;4.20;99.90
3055;DHT22;1537;52.018;8.542;2023-12-14T05:17:24;4.10;99.90
3055;DHT22;1537;52.018;8.542;2023-12-14T05:20:48;4.10;99.90
3055;DHT22;1537;52.018;8.542;2023-12-14T05:24:12;4.10;99.90
3055;DHT22;1537;52.018;8.542;2023-12-14T05:27:36;4.10;99.90
3055;DHT22;1537;52.018;8.542;2023-12-14T05:31:01;4.10;99.90
3055;DHT22;1537;52.018;8.542;2023-12-14T05:34:27;4.20;99.90
3055;DHT22;1537;52.018;8.542;2023-12-14T05:37:51;4.10;99.90
3055;DHT22;1537;52.018;8.542;2023-12-14T05:41:18;4.20;99.90
3055;DHT22;1537;52.018;8.542;2023-12-14T05:44:42;4.20;99.90
3055;DHT22;1537;52.018;8.542;2023-12-14T05:48:08;4.20;99.90
3055;DHT22;1537;52.018;8.542;2023-12-14T05:51:33;4.10;99.90
3055;DHT22;1537;52.018;8.542;2023-12-14T05:54:58;4.10;99.90
3055;DHT22;1537;52.018;8.542;2023-12-14T05:58:27;4.10;99.90
3055;DHT22;1537;52.018;8.542;2023-12-14T06:01:56;4.00;99.90
3055;DHT22;1537;52.018;8.542;2023-12-14T06:05:26;4.00;99.90
3055;DHT22;1537;52.018;8.542;2023-12-14T06:08:54;4.00;99.90
3055;DHT22;1537;52.018;8.542;2023-12-14T06:12:19;4.00;99.90
3055;DHT22;1537;52.018;8.542;2023-12-14T06:15:43;4.10;99.90
3055;DHT22;1537;52.018;8.542;2023-12-14T06:19:07;4.10;99.90
3055;DHT22;1537;52.018;8.542;2023-12-14T06:22:35;4.00;99.90
3055;DHT22;1537;52.018;8.542;2023-12-14T06:26:03;4.00;99.90
3055;DHT22;1537;52.018;8.542;2023-12-14T06:29:28;4.10;99.90
3055;DHT22;1537;52.018;8.542;2023-12-14T06:32:54;4.10;99.90
3055;DHT22;1537;52.018;8.542;2023-12-14T06:36:26;4.10;99.90
3055;DHT22;1537;52.018;8.542;2023-12-14T06:39:57;4.10;99.90
3055;DHT22;1537;52.018;8.542;2023-12-14T06:43:23;4.10;99.90
3055;DHT22;1537;52.018;8.542;2023-12-14T06:46:54;4.10;99.90
3055;DHT22;1537;52.018;8.542;2023-12-14T06:50:21;4.20;99.90
3055;DHT22;1537;52.018;8.542;2023-12-14T06:53:53;4.10;99.90
3055;DHT22;1537;52.018;8.542;2023-12-14T06:57:24;4.00;99.90
3055;DHT22;1537;52.018;8.542;2023-12-14T07:00:50;4.10;99.90
3055;DHT22;1537;52.018;8.542;2023-12-14T07:04:15;4.00;99.90
3055;DHT22;1537;52.018;8.542;2023-12-14T07:07:42;4.10;99.90
3055;DHT22;1537;52.018;8.542;2023-12-14T07:11:08;4.10;99.90
3055;DHT22;1537;52.018;8.542;2023-12-14T07:14:38;4.10;99.90
3055;DHT22;1537;52.018;8.542;2023-12-14T07:18:04;4.10;99.90
3055;DHT22;1537;52.018;8.542;2023-12-14T07:21:30;4.10;99.90
3055;DHT22;1537;52.018;8.542;2023-12-14T07:25:08;4.10;99.90
3055;DHT22;1537;52.018;8.542;2023-12-14T07:28:33;4.10;99.90
3055;DHT22;1537;52.018;8.542;2023-12-14T07:31:59;4.10;99.90
3055;DHT22;1537;52.018;8.542;2023-12-14T07:35:24;4.10;99.90
3055;DHT22;1537;52.018;8.542;2023-12-14T07:38:49;4.10;99.90
3055;DHT22;1537;52.018;8.542;2023-12-14T07:42:17;4.10;99.90
3055;DHT22;1537;52.018;8.542;2023-12-14T07:45:42;4.10;99.90
3055;DHT22;1537;52.018;8.542;2023-12-14T07:49:10;4.10;99.90
3055;DHT22;1537;52.018;8.542;2023-12-14T07:52:38;4.10;99.90
3055;DHT22;1537;52.018;8.542;2023-12-14T07:56:02;4.20;99.90
3055;DHT22;1537;52.018;8.542;2023-12-14T07:59:27;4.10;99.90
3055;DHT22;1537;52.018;8.542;2023-12-14T08:02:53;4.10;99.90
3055;DHT22;1537;52.018;8.542;2023-12-14T08:06:20;4.10;99.90
3055;DHT22;1537;52.018;8.542;2023-12-14T08:09:44;4.00;99.90
3055;DHT22;1537;52.018;8.542;2023-12-14T08:13:09;4.00;99.90
3055;DHT22;1537;52.018;8.542;2023-12-14T08:16:35;4.00;99.90
3055;DHT22;1537;52.018;8.542;2023-12-14T08:20:00;4.00;99.90
3055;DHT22;1537;52.018;8.542;2023-12-14T08:23:26;3.90;99.90
3055;DHT22;1537;52.018;8.542;2023-12-14T08:26:53;3.90;99.90
3055;DHT22;1537;52.018;8.542;2023-12-14T08:30:18;3.90;99.90
3055;DHT22;1537;52.018;8.542;2023-12-14T08:33:44;4.00;99.90
3055;DHT22;1537;52.018;8.542;2023-12-14T08:37:13;3.90;99.90
3055;DHT22;1537;52.018;8.542;2023-12-14T08:40:39;3.80;99.90
3055;DHT22;1537;52.018;8.542;2023-12-14T08:44:04;3.80;99.90
3055;DHT22;1537;52.018;8.542;2023-12-14T08:47:29;3.80;99.90
3055;DHT22;1537;52.018;8.542;2023-12-14T08:50:53;3.80;99.90
3055;DHT22;1537;52.018;8.542;2023-12-14T08:54:17;3.70;99.90
3055;DHT22;1537;52.018;8.542;2023-12-14T08:57:42;3.80;99.90
3055;DHT22;1537;52.018;8.542;2023-12-14T09:01:06;3.90;99.90
3055;DHT22;1537;52.018;8.542;2023-12-14T09:04:30;3.90;99.90
3055;DHT22;1537;52.018;8.542;2023-12-14T09:07:54;3.90;99.90
3055;DHT22;1537;52.018;8.542;2023-12-14T09:11:19;3.90;99.90
3055;DHT22;1537;52.018;8.542;2023-12-14T09:14:44;3.90;99.90
3055;DHT22;1537;52.018;8.542;2023-12-14T09:18:08;4.00;99.90
3055;DHT22;1537;52.018;8.542;2023-12-14T09:21:33;3.90;99.90
3055;DHT22;1537;52.018;8.542;2023-12-14T09:25:08;3.90;99.90
3055;DHT22;1537;52.018;8.542;2023-12-14T09:28:34;3.90;99.90
3055;DHT22;1537;52.018;8.542;2023-12-14T09:31:59;3.90;99.90
3055;DHT22;1537;52.018;8.542;2023-12-14T09:35:23;4.00;99.90
3055;DHT22;1537;52.018;8.542;2023-12-14T09:38:47;4.00;99.90
3055;DHT22;1537;52.018;8.542;2023-12-14T09:42:19;4.00;99.90
3055;DHT22;1537;52.018;8.542;2023-12-14T09:45:44;4.10;99.90
3055;DHT22;1537;52.018;8.542;2023-12-14T09:49:13;4.00;99.90
3055;DHT22;1537;52.018;8.542;2023-12-14T09:52:42;4.00;99.90
3055;DHT22;1537;52.018;8.542;2023-12-14T09:56:33;4.00;99.90
3055;DHT22;1537;52.018;8.542;2023-12-14T10:00:01;4.10;99.90
3055;DHT22;1537;52.018;8.542;2023-12-14T10:07:31;4.20;99.90
3055;DHT22;1537;52.018;8.542;2023-12-14T10:11:02;4.20;99.90
3055;DHT22;1537;52.018;8.542;2023-12-14T10:14:37;4.20;99.90
3055;DHT22;1537;52.018;8.542;2023-12-14T10:18:03;4.30;99.90
3055;DHT22;1537;52.018;8.542;2023-12-14T10:21:28;4.40;99.90
3055;DHT22;1537;52.018;8.542;2023-12-14T10:28:59;4.30;99.90
3055;DHT22;1537;52.018;8.542;2023-12-14T10:32:27;4.40;99.90
3055;DHT22;1537;52.018;8.542;2023-12-14T10:35:52;4.50;99.90
3055;DHT22;1537;52.018;8.542;2023-12-14T10:39:17;4.60;99.90
3055;DHT22;1537;52.018;8.542;2023-12-14T10:42:45;4.60;99.90
3055;DHT22;1537;52.018;8.542;2023-12-14T10:46:11;4.60;99.90
3055;DHT22;1537;52.018;8.542;2023-12-14T10:49:36;4.60;99.90
3055;DHT22;1537;52.018;8.542;2023-12-14T10:53:03;4.50;99.90
3055;DHT22;1537;52.018;8.542;2023-12-14T10:56:27;4.50;99.90
3055;DHT22;1537;52.018;8.542;2023-12-14T10:59:57;4.50;99.90
3055;DHT22;1537;52.018;8.542;2023-12-14T11:03:23;4.60;99.90
3055;DHT22;1537;52.018;8.542;2023-12-14T11:06:48;4.70;99.90
3055;DHT22;1537;52.018;8.542;2023-12-14T11:10:13;4.90;99.90
3055;DHT22;1537;52.018;8.542;2023-12-14T11:13:37;5.00;99.90
3055;DHT22;1537;52.018;8.542;2023-12-14T11:17:06;5.10;99.90
3055;DHT22;1537;52.018;8.542;2023-12-14T11:20:47;5.20;99.90
3055;DHT22;1537;52.018;8.542;2023-12-14T11:24:12;5.20;99.90
3055;DHT22;1537;52.018;8.542;2023-12-14T11:27:42;5.30;99.90
3055;DHT22;1537;52.018;8.542;2023-12-14T11:31:09;5.40;99.90
3055;DHT22;1537;52.018;8.542;2023-12-14T11:34:34;5.40;99.90
3055;DHT22;1537;52.018;8.542;2023-12-14T11:37:59;5.40;99.90
3055;DHT22;1537;52.018;8.542;2023-12-14T11:41:25;5.50;99.90
3055;DHT22;1537;52.018;8.542;2023-12-14T11:44:50;5.60;99.90
3055;DHT22;1537;52.018;8.542;2023-12-14T11:48:14;5.50;99.90
3055;DHT22;1537;52.018;8.542;2023-12-14T11:51:39;5.40;99.90
3055;DHT22;1537;52.018;8.542;2023-12-14T11:55:04;5.30;99.90
3055;DHT22;1537;52.018;8.542;2023-12-14T11:58:28;5.20;99.90
3055;DHT22;1537;52.018;8.542;2023-12-14T12:01:56;5.30;99.90
3055;DHT22;1537;52.018;8.542;2023-12-14T12:05:35;5.30;99.90
3055;DHT22;1537;52.018;8.542;2023-12-14T12:08:59;5.50;99.90
3055;DHT22;1537;52.018;8.542;2023-12-14T12:12:24;5.30;99.90
3055;DHT22;1537;52.018;8.542;2023-12-14T12:15:48;5.30;99.90
3055;DHT22;1537;52.018;8.542;2023-12-14T12:19:13;5.30;99.90
3055;DHT22;1537;52.018;8.542;2023-12-14T12:22:37;5.40;99.90
3055;DHT22;1537;52.018;8.542;2023-12-14T12:26:01;5.40;99.90
3055;DHT22;1537;52.018;8.542;2023-12-14T12:29:26;5.60;99.90
3055;DHT22;1537;52.018;8.542;2023-12-14T12:32:50;5.70;99.90
3055;DHT22;1537;52.018;8.542;2023-12-14T12:36:14;5.90;99.90
3055;DHT22;1537;52.018;8.542;2023-12-14T12:39:38;6.00;99.90
3055;DHT22;1537;52.018;8.542;2023-12-14T12:43:02;6.10;99.90
3055;DHT22;1537;52.018;8.542;2023-12-14T12:46:27;6.00;99.90
3055;DHT22;1537;52.018;8.542;2023-12-14T12:49:51;6.10;99.90
3055;DHT22;1537;52.018;8.542;2023-12-14T12:53:15;6.10;99.90
3055;DHT22;1537;52.018;8.542;2023-12-14T12:56:38;6.20;99.90
3055;DHT22;1537;52.018;8.542;2023-12-14T13:00:03;6.20;99.90
3055;DHT22;1537;52.018;8.542;2023-12-14T13:03:32;6.20;99.90
3055;DHT22;1537;52.018;8.542;2023-12-14T13:06:56;6.10;99.90
3055;DHT22;1537;52.018;8.542;2023-12-14T13:10:20;6.10;99.90
3055;DHT22;1537;52.018;8.542;2023-12-14T13:13:54;6.00;99.90
3055;DHT22;1537;52.018;8.542;2023-12-14T13:17:19;6.00;99.90
3055;DHT22;1537;52.018;8.542;2023-12-14T13:20:45;6.00;99.90
3055;DHT22;1537;52.018;8.542;2023-12-14T13:24:09;6.00;99.90
3055;DHT22;1537;52.018;8.542;2023-12-14T13:27:32;6.00;99.90
3055;DHT22;1537;52.018;8.542;2023-12-14T13:30:59;6.00;99.90
3055;DHT22;1537;52.018;8.542;2023-12-14T13:34:23;6.10;99.90
3055;DHT22;1537;52.018;8.542;2023-12-14T13:37:48;6.10;99.90
3055;DHT22;1537;52.018;8.542;2023-12-14T13:41:11;6.20;99.90
3055;DHT22;1537;52.018;8.542;2023-12-14T13:44:35;6.20;99.90
3055;DHT22;1537;52.018;8.542;2023-12-14T13:47:59;6.20;99.90
3055;DHT22;1537;52.018;8.542;2023-12-14T13:51:23;6.10;99.90
3055;DHT22;1537;52.018;8.542;2023-12-14T13:54:50;6.00;99.90
3055;DHT22;1537;52.018;8.542;2023-12-14T13:58:14;6.00;99.90
3055;DHT22;1537;52.018;8.542;2023-12-14T14:01:37;6.00;99.90
3055;DHT22;1537;52.018;8.542;2023-12-14T14:05:01;6.00;99.90
3055;DHT22;1537;52.018;8.542;2023-12-14T14:08:25;6.00;99.90
3055;DHT22;1537;52.018;8.542;2023-12-14T14:11:50;6.00;99.90
3055;DHT22;1537;52.018;8.542;2023-12-14T14:15:14;5.90;99.90
3055;DHT22;1537;52.018;8.542;2023-12-14T14:18:39;5.90;99.90
3055;DHT22;1537;52.018;8.542;2023-12-14T14:22:03;5.80;99.90
3055;DHT22;1537;52.018;8.542;2023-12-14T14:25:27;5.70;99.90
3055;DHT22;1537;52.018;8.542;2023-12-14T14:28:52;5.80;99.90
3055;DHT22;1537;52.018;8.542;2023-12-14T14:32:18;5.80;99.90
3055;DHT22;1537;52.018;8.542;2023-12-14T14:35:42;5.80;99.90
3055;DHT22;1537;52.018;8.542;2023-12-14T14:39:06;5.80;99.90
3055;DHT22;1537;52.018;8.542;2023-12-14T14:42:30;5.80;99.90
3055;DHT22;1537;52.018;8.542;2023-12-14T14:45:56;5.80;99.90
3055;DHT22;1537;52.018;8.542;2023-12-14T14:49:20;5.80;99.90
3055;DHT22;1537;52.018;8.542;2023-12-14T14:52:44;5.80;99.90
3055;DHT22;1537;52.018;8.542;2023-12-14T14:56:08;5.90;99.90
3055;DHT22;1537;52.018;8.542;2023-12-14T14:59:32;5.90;99.90
3055;DHT22;1537;52.018;8.542;2023-12-14T15:02:57;5.90;99.90
3055;DHT22;1537;52.018;8.542;2023-12-14T15:06:28;5.90;99.90
3055;DHT22;1537;52.018;8.542;2023-12-14T15:09:52;5.90;99.90
3055;DHT22;1537;52.018;8.542;2023-12-14T15:13:16;5.80;99.90
3055;DHT22;1537;52.018;8.542;2023-12-14T15:16:39;5.90;99.90
3055;DHT22;1537;52.018;8.542;2023-12-14T15:20:05;5.90;99.90
3055;DHT22;1537;52.018;8.542;2023-12-14T15:23:29;5.90;99.90
3055;DHT22;1537;52.018;8.542;2023-12-14T15:26:53;5.80;99.90
3055;DHT22;1537;52.018;8.542;2023-12-14T15:30:17;5.80;99.90
3055;DHT22;1537;52.018;8.542;2023-12-14T15:33:41;5.80;99.90
3055;DHT22;1537;52.018;8.542;2023-12-14T15:37:06;5.70;99.90
3055;DHT22;1537;52.018;8.542;2023-12-14T15:40:30;5.70;99.90
3055;DHT22;1537;52.018;8.542;2023-12-14T15:43:54;5.70;99.90
3055;DHT22;1537;52.018;8.542;2023-12-14T15:47:18;5.70;99.90
3055;DHT22;1537;52.018;8.542;2023-12-14T15:50:43;5.60;99.90
3055;DHT22;1537;52.018;8.542;2023-12-14T15:54:10;5.60;99.90
3055;DHT22;1537;52.018;8.542;2023-12-14T15:57:33;5.60;99.90
3055;DHT22;1537;52.018;8.542;2023-12-14T16:00:57;5.60;99.90
3055;DHT22;1537;52.018;8.542;2023-12-14T16:04:21;5.60;99.90
3055;DHT22;1537;52.018;8.542;2023-12-14T16:07:44;5.60;99.90
3055;DHT22;1537;52.018;8.542;2023-12-14T16:11:12;5.60;99.90
3055;DHT22;1537;52.018;8.542;2023-12-14T16:14:36;5.50;99.90
3055;DHT22;1537;52.018;8.542;2023-12-14T16:18:00;5.60;99.90
3055;DHT22;1537;52.018;8.542;2023-12-14T16:21:24;5.60;99.90
3055;DHT22;1537;52.018;8.542;2023-12-14T16:24:48;5.60;99.90
3055;DHT22;1537;52.018;8.542;2023-12-14T16:28:13;5.50;99.90
3055;DHT22;1537;52.018;8.542;2023-12-14T16:31:40;5.50;99.90
3055;DHT22;1537;52.018;8.542;2023-12-14T16:35:05;5.60;99.90
3055;DHT22;1537;52.018;8.542;2023-12-14T16:38:29;5.60;99.90
3055;DHT22;1537;52.018;8.542;2023-12-14T16:41:52;5.60;99.90
3055;DHT22;1537;52.018;8.542;2023-12-14T16:45:17;5.60;99.90
3055;DHT22;1537;52.018;8.542;2023-12-14T16:48:42;5.60;99.90
3055;DHT22;1537;52.018;8.542;2023-12-14T16:52:06;5.70;99.90
3055;DHT22;1537;52.018;8.542;2023-12-14T16:55:31;5.60;99.90
3055;DHT22;1537;52.018;8.542;2023-12-14T16:58:54;5.50;99.90
3055;DHT22;1537;52.018;8.542;2023-12-14T17:02:20;5.50;99.90
3055;DHT22;1537;52.018;8.542;2023-12-14T17:05:45;5.40;99.90
3055;DHT22;1537;52.018;8.542;2023-12-14T17:09:09;5.40;99.90
3055;DHT22;1537;52.018;8.542;2023-12-14T17:12:33;5.50;99.90
3055;DHT22;1537;52.018;8.542;2023-12-14T17:15:58;5.40;99.90
3055;DHT22;1537;52.018;8.542;2023-12-14T17:19:23;5.50;99.90
3055;DHT22;1537;52.018;8.542;2023-12-14T17:22:47;5.50;99.90
3055;DHT22;1537;52.018;8.542;2023-12-14T17:26:11;5.50;99.90
3055;DHT22;1537;52.018;8.542;2023-12-14T17:29:39;5.50;99.90
3055;DHT22;1537;52.018;8.542;2023-12-14T17:33:03;5.50;99.90
3055;DHT22;1537;52.018;8.542;2023-12-14T17:36:36;5.60;99.90
3055;DHT22;1537;52.018;8.542;2023-12-14T17:40:00;5.50;99.90
3055;DHT22;1537;52.018;8.542;2023-12-14T17:43:25;5.60;99.90
3055;DHT22;1537;52.018;8.542;2023-12-14T17:46:48;5.60;99.90
3055;DHT22;1537;52.018;8.542;2023-12-14T17:50:12;5.60;99.90
3055;DHT22;1537;52.018;8.542;2023-12-14T17:53:38;5.50;99.90
3055;DHT22;1537;52.018;8.542;2023-12-14T17:57:03;5.50;99.90
3055;DHT22;1537;52.018;8.542;2023-12-14T18:00:27;5.60;99.90
3055;DHT22;1537;52.018;8.542;2023-12-14T18:03:50;5.60;99.90
3055;DHT22;1537;52.018;8.542;2023-12-14T18:07:14;5.50;99.90
3055;DHT22;1537;52.018;8.542;2023-12-14T18:10:41;5.50;99.90
3055;DHT22;1537;52.018;8.542;2023-12-14T18:14:06;5.50;99.90
3055;DHT22;1537;52.018;8.542;2023-12-14T18:17:30;5.50;99.90
3055;DHT22;1537;52.018;8.542;2023-12-14T18:20:54;5.50;99.90
3055;DHT22;1537;52.018;8.542;2023-12-14T18:24:24;5.50;99.90
3055;DHT22;1537;52.018;8.542;2023-12-14T18:27:50;5.40;99.90
3055;DHT22;1537;52.018;8.542;2023-12-14T18:31:14;5.30;99.90
3055;DHT22;1537;52.018;8.542;2023-12-14T18:34:42;5.30;99.90
3055;DHT22;1537;52.018;8.542;2023-12-14T18:38:06;5.30;99.90
3055;DHT22;1537;52.018;8.542;2023-12-14T18:41:30;5.30;99.90
3055;DHT22;1537;52.018;8.542;2023-12-14T18:44:55;5.30;99.90
3055;DHT22;1537;52.018;8.542;2023-12-14T18:48:19;5.30;99.90
3055;DHT22;1537;52.018;8.542;2023-12-14T18:51:44;5.30;99.90
3055;DHT22;1537;52.018;8.542;2023-12-14T18:55:08;5.20;99.90
3055;DHT22;1537;52.018;8.542;2023-12-14T18:58:34;5.20;99.90
3055;DHT22;1537;52.018;8.542;2023-12-14T19:01:59;5.30;99.90
3055;DHT22;1537;52.018;8.542;2023-12-14T19:05:23;5.30;99.90
3055;DHT22;1537;52.018;8.542;2023-12-14T19:08:50;5.30;99.90
3055;DHT22;1537;52.018;8.542;2023-12-14T19:12:14;5.30;99.90
3055;DHT22;1537;52.018;8.542;2023-12-14T19:15:39;5.20;99.90
3055;DHT22;1537;52.018;8.542;2023-12-14T19:19:05;5.30;99.90
3055;DHT22;1537;52.018;8.542;2023-12-14T19:22:29;5.30;99.90
3055;DHT22;1537;52.018;8.542;2023-12-14T19:25:53;5.30;99.90
3055;DHT22;1537;52.018;8.542;2023-12-14T19:29:23;5.20;99.90
3055;DHT22;1537;52.018;8.542;2023-12-14T19:32:48;5.30;99.90
3055;DHT22;1537;52.018;8.542;2023-12-14T19:36:16;5.30;99.90
3055;DHT22;1537;52.018;8.542;2023-12-14T19:39:41;5.30;99.90
3055;DHT22;1537;52.018;8.542;2023-12-14T19:43:05;5.30;99.90
3055;DHT22;1537;52.018;8.542;2023-12-14T19:46:29;5.30;99.90
3055;DHT22;1537;52.018;8.542;2023-12-14T19:49:54;5.20;99.90
3055;DHT22;1537;52.018;8.542;2023-12-14T19:53:23;5.30;99.90
3055;DHT22;1537;52.018;8.542;2023-12-14T19:56:47;5.20;99.90
3055;DHT22;1537;52.018;8.542;2023-12-14T20:00:12;5.20;99.90
3055;DHT22;1537;52.018;8.542;2023-12-14T20:03:36;5.30;99.90
3055;DHT22;1537;52.018;8.542;2023-12-14T20:07:00;5.20;99.90
3055;DHT22;1537;52.018;8.542;2023-12-14T20:10:27;5.20;99.90
3055;DHT22;1537;52.018;8.542;2023-12-14T20:13:51;5.20;99.90
3055;DHT22;1537;52.018;8.542;2023-12-14T20:17:16;5.10;99.90
3055;DHT22;1537;52.018;8.542;2023-12-14T20:20:43;5.20;99.90
3055;DHT22;1537;52.018;8.542;2023-12-14T20:24:11;5.20;99.90
3055;DHT22;1537;52.018;8.542;2023-12-14T20:27:43;5.10;99.90
3055;DHT22;1537;52.018;8.542;2023-12-14T20:31:10;5.10;99.90
3055;DHT22;1537;52.018;8.542;2023-12-14T20:34:38;5.20;99.90
3055;DHT22;1537;52.018;8.542;2023-12-14T20:38:05;5.10;99.90
3055;DHT22;1537;52.018;8.542;2023-12-14T20:41:30;5.00;99.90
3055;DHT22;1537;52.018;8.542;2023-12-14T20:45:00;4.90;99.90
3055;DHT22;1537;52.018;8.542;2023-12-14T20:48:27;4.90;99.90
3055;DHT22;1537;52.018;8.542;2023-12-14T20:51:54;4.90;99.90
3055;DHT22;1537;52.018;8.542;2023-12-14T20:55:21;4.90;99.90
3055;DHT22;1537;52.018;8.542;2023-12-14T20:58:50;4.90;99.90
3055;DHT22;1537;52.018;8.542;2023-12-14T21:02:16;4.70;99.90
3055;DHT22;1537;52.018;8.542;2023-12-14T21:05:44;4.70;99.90
3055;DHT22;1537;52.018;8.542;2023-12-14T21:09:11;4.60;99.90
3055;DHT22;1537;52.018;8.542;2023-12-14T21:12:38;4.60;99.90
3055;DHT22;1537;52.018;8.542;2023-12-14T21:16:02;4.50;99.90
3055;DHT22;1537;52.018;8.542;2023-12-14T21:19:28;4.50;99.90
3055;DHT22;1537;52.018;8.542;2023-12-14T21:23:07;4.50;99.90
3055;DHT22;1537;52.018;8.542;2023-12-14T21:26:49;4.40;99.90
3055;DHT22;1537;52.018;8.542;2023-12-14T21:30:28;4.40;99.90
3055;DHT22;1537;52.018;8.542;2023-12-14T21:33:52;4.30;99.90
3055;DHT22;1537;52.018;8.542;2023-12-14T21:37:17;4.30;99.90
3055;DHT22;1537;52.018;8.542;2023-12-14T21:40:41;4.10;99.90
3055;DHT22;1537;52.018;8.542;2023-12-14T21:44:04;4.10;99.90
3055;DHT22;1537;52.018;8.542;2023-12-14T21:47:28;4.00;99.90
3055;DHT22;1537;52.018;8.542;2023-12-14T21:50:53;3.90;99.90
3055;DHT22;1537;52.018;8.542;2023-12-14T21:54:18;3.90;99.90
3055;DHT22;1537;52.018;8.542;2023-12-14T21:57:42;3.90;99.90
3055;DHT22;1537;52.018;8.542;2023-12-14T22:01:06;3.90;99.90
3055;DHT22;1537;52.018;8.542;2023-12-14T22:04:29;3.90;99.90
3055;DHT22;1537;52.018;8.542;2023-12-14T22:07:54;3.80;99.90
3055;DHT22;1537;52.018;8.542;2023-12-14T22:11:40;3.80;99.90
3055;DHT22;1537;52.018;8.542;2023-12-14T22:15:09;3.80;99.90
3055;DHT22;1537;52.018;8.542;2023-12-14T22:18:34;3.80;99.90
3055;DHT22;1537;52.018;8.542;2023-12-14T22:21:58;3.80;99.90
3055;DHT22;1537;52.018;8.542;2023-12-14T22:25:29;3.70;99.90
3055;DHT22;1537;52.018;8.542;2023-12-14T22:28:57;3.80;99.90
3055;DHT22;1537;52.018;8.542;2023-12-14T22:32:24;3.70;99.90
3055;DHT22;1537;52.018;8.542;2023-12-14T22:35:52;3.80;99.90
3055;DHT22;1537;52.018;8.542;2023-12-14T22:39:19;3.80;99.90
3055;DHT22;1537;52.018;8.542;2023-12-14T22:42:48;3.90;99.90
3055;DHT22;1537;52.018;8.542;2023-12-14T22:46:16;3.90;99.90
3055;DHT22;1537;52.018;8.542;2023-12-14T22:49:40;4.00;99.90
3055;DHT22;1537;52.018;8.542;2023-12-14T22:53:07;4.00;99.90